Time;durP1;ratioP1;P1;durP2;ratioP2;P2;SDS_P1;SDS_P2;PMS_P1;PMS_P2;Temp;Humidity;BMP_temperature;BMP_pressure;BME280_temperature;BME280_humidity;BME280_pressure;Samples;Min_cycle;Max_cycle;Signal;HPM_P1;HPM_P2
2024/03/03 00:02:11;;;;;;;5.43;4.43;;;;;;;;;;5004877;28;20463;-89
2024/03/03 00:07:37;;;;;;;5.30;4.40;;;;;;;;;;5032637;28;20501;-88
2024/03/03 00:10:11;;;;;;;5.47;4.63;;;;;;;;;;5027791;28;20489;-87
2024/03/03 00:12:48;;;;;;;7.23;5.67;;;;;;;;;;5022447;28;20465;-89
2024/03/03 00:15:34;;;;;;;4.90;4.30;;;;;;;;;;5043465;28;20832;-88
2024/03/03 00:18:08;;;;;;;5.13;4.53;;;;;;;;;;5025660;28;20457;-88
2024/03/03 00:21:00;;;;;;;6.27;4.47;;;;;;;;;;5020602;28;20554;-87
2024/03/03 00:23:33;;;;;;;9.03;5.00;;;;;;;;;;5024757;28;20505;-88
2024/03/03 00:26:04;;;;;;;4.90;4.33;;;;;;;;;;5025440;28;20545;-88
2024/03/03 00:28:49;;;;;;;6.17;5.23;;;;;;;;;;5016571;28;20910;-88
2024/03/03 00:31:25;;;;;;;6.80;5.20;;;;;;;;;;5020521;28;20451;-89
2024/03/03 00:34:00;;;;;;;7.53;5.10;;;;;;;;;;5022879;28;20500;-89
2024/03/03 00:36:31;;;;;;;5.43;4.63;;;;;;;;;;5022803;28;20973;-89
2024/03/03 00:39:07;;;;;;;4.87;4.37;;;;;;;;;;5022984;28;20450;-88
2024/03/03 00:41:49;;;;;;;;;;;;;;;;;;;;;
2024/03/03 00:44:21;;;;;;;5.80;4.93;;;;;;;;;;5024352;28;20478;-88
2024/03/03 00:47:00;;;;;;;5.50;4.40;;;;;;;;;;5021297;28;20553;-88
2024/03/03 00:49:29;;;;;;;6.23;4.93;;;;;;;;;;5042230;28;20454;-90
2024/03/03 00:51:58;;;;;;;6.30;5.10;;;;;;;;;;5035641;28;20447;-91
2024/03/03 00:54:46;;;;;;;6.77;4.90;;;;;;;;;;5036316;28;20462;-88
2024/03/03 00:57:42;;;;;;;5.70;4.17;;;;;;;;;;5037283;28;20480;-86
2024/03/03 01:00:20;;;;;;;6.20;5.40;;;;;;;;;;5037190;28;20458;-88
2024/03/03 01:02:51;;;;;;;7.40;4.73;;;;;;;;;;5022490;28;20460;-88
2024/03/03 01:05:20;;;;;;;7.20;5.03;;;;;;;;;;5033807;28;20477;-89
2024/03/03 01:07:57;;;;;;;5.13;4.63;;;;;;;;;;5053263;28;20486;-89
2024/03/03 01:10:29;;;;;;;5.00;4.20;;;;;;;;;;5036888;28;20465;-89
2024/03/03 01:13:09;;;;;;;5.87;4.90;;;;;;;;;;5037360;28;20457;-91
2024/03/03 01:15:46;;;;;;;5.57;4.63;;;;;;;;;;5051373;28;20442;-89
2024/03/03 01:18:16;;;;;;;6.87;5.00;;;;;;;;;;5039184;28;20450;-89
2024/03/03 01:20:58;;;;;;;5.77;4.30;;;;;;;;;;5051875;28;20554;-89
2024/03/03 01:23:46;;;;;;;7.50;4.90;;;;;;;;;;5036169;28;20462;-89
2024/03/03 01:26:36;;;;;;;5.50;4.63;;;;;;;;;;5323781;23;20478;-90
2024/03/03 01:29:20;;;;;;;6.80;5.00;;;;;;;;;;5017927;28;20462;-90
2024/03/03 01:32:03;;;;;;;5.00;4.50;;;;;;;;;;5036407;28;20437;-91
2024/03/03 01:34:52;;;;;;;6.00;4.90;;;;;;;;;;5036973;28;20530;-91
2024/03/03 01:37:23;;;;;;;5.37;4.87;;;;;;;;;;5036735;28;20438;-89
2024/03/03 01:39:59;;;;;;;6.73;5.50;;;;;;;;;;5016457;28;20470;-89
2024/03/03 01:42:31;;;;;;;5.07;4.57;;;;;;;;;;5033879;28;20505;-87
2024/03/03 01:47:47;;;;;;;4.70;4.30;;;;;;;;;;5135440;23;20474;-90
2024/03/03 01:50:38;;;;;;;5.77;4.37;;;;;;;;;;4997951;28;20463;-89
2024/03/03 01:53:21;;;;;;;5.50;4.53;;;;;;;;;;4998603;28;20440;-90
2024/03/03 01:55:50;;;;;;;7.00;4.67;;;;;;;;;;4997249;28;20432;-90
2024/03/03 01:58:26;;;;;;;5.40;4.47;;;;;;;;;;4999072;28;20440;-90
2024/03/03 02:01:10;;;;;;;11.53;5.03;;;;;;;;;;4999842;28;20467;-89
2024/03/03 02:03:40;;;;;;;5.90;4.80;;;;;;;;;;5014468;28;20599;-88
2024/03/03 02:06:12;;;;;;;6.60;4.77;;;;;;;;;;5013956;28;20431;-87
2024/03/03 02:08:48;;;;;;;5.33;4.30;;;;;;;;;;4992762;28;20452;-89
2024/03/03 02:11:23;;;;;;;4.30;3.80;;;;;;;;;;5002942;28;20453;-89
2024/03/03 02:13:56;;;;;;;6.20;4.63;;;;;;;;;;4993714;28;20462;-88
2024/03/03 02:16:31;;;;;;;5.90;3.57;;;;;;;;;;4999892;28;20467;-88
2024/03/03 02:19:21;;;;;;;4.33;3.80;;;;;;;;;;4997402;28;20436;-88
2024/03/03 02:21:58;;;;;;;5.97;4.40;;;;;;;;;;4997437;28;20475;-88
2024/03/03 02:24:37;;;;;;;5.20;3.80;;;;;;;;;;5021853;28;20459;-90
2024/03/03 02:27:09;;;;;;;4.17;3.77;;;;;;;;;;4996944;28;20511;-90
2024/03/03 02:29:37;;;;;;;7.10;3.93;;;;;;;;;;4996762;28;20452;-87
2024/03/03 02:43:11;;;;;;;4.33;3.93;;;;;;;;;;4992404;28;20528;-90
2024/03/03 02:45:50;;;;;;;4.60;4.20;;;;;;;;;;4990892;28;20524;-88
2024/03/03 02:48:21;;;;;;;5.23;3.80;;;;;;;;;;5097856;23;20523;-89
2024/03/03 02:50:54;;;;;;;7.97;4.43;;;;;;;;;;5017209;28;20459;-89
2024/03/03 02:53:32;;;;;;;5.80;4.10;;;;;;;;;;5024395;28;20438;-86
2024/03/03 02:56:17;;;;;;;5.30;3.80;;;;;;;;;;5013276;28;20470;-87
2024/03/03 02:58:54;;;;;;;7.20;4.07;;;;;;;;;;5009189;28;20448;-89
2024/03/03 03:01:28;;;;;;;5.97;4.33;;;;;;;;;;5023203;28;20439;-89
2024/03/03 03:04:03;;;;;;;5.30;4.37;;;;;;;;;;5002551;28;20471;-89
2024/03/03 03:06:44;;;;;;;6.97;4.67;;;;;;;;;;5005551;28;20549;-88
2024/03/03 03:09:24;;;;;;;7.07;4.77;;;;;;;;;;5016644;28;20431;-88
2024/03/03 03:12:01;;;;;;;6.93;4.43;;;;;;;;;;5022153;28;20435;-88
2024/03/03 03:14:45;;;;;;;4.20;3.67;;;;;;;;;;5018528;28;20462;-86
2024/03/03 03:17:24;;;;;;;5.30;4.47;;;;;;;;;;5017485;28;20465;-88
2024/03/03 03:20:08;;;;;;;;;;;;;;;;;;;;;
2024/03/03 03:22:46;;;;;;;7.83;5.40;;;;;;;;;;5012207;28;20466;-91
2024/03/03 03:25:17;;;;;;;7.57;5.00;;;;;;;;;;5013055;28;20478;-89
2024/03/03 03:27:46;;;;;;;7.63;5.03;;;;;;;;;;5008173;28;20505;-87
2024/03/03 03:30:24;;;;;;;8.03;5.03;;;;;;;;;;5011975;28;20452;-88
2024/03/03 03:32:57;;;;;;;7.50;5.70;;;;;;;;;;5007435;28;20447;-88
2024/03/03 03:35:34;;;;;;;7.17;5.57;;;;;;;;;;4999611;28;20466;-88
2024/03/03 03:38:07;;;;;;;5.70;4.70;;;;;;;;;;5002322;28;20455;-88
2024/03/03 03:40:38;;;;;;;7.70;5.87;;;;;;;;;;5007978;28;20467;-86
2024/03/03 03:43:16;;;;;;;7.40;5.67;;;;;;;;;;5008329;28;20459;-88
2024/03/03 03:45:51;;;;;;;8.20;5.10;;;;;;;;;;4997466;28;20459;-88
2024/03/03 03:48:20;;;;;;;6.70;5.27;;;;;;;;;;5008177;28;20495;-88
2024/03/03 03:50:56;;;;;;;10.37;5.73;;;;;;;;;;5002384;28;20458;-88
2024/03/03 03:53:30;;;;;;;9.67;6.40;;;;;;;;;;5002581;28;20448;-87
2024/03/03 03:56:01;;;;;;;6.93;5.57;;;;;;;;;;5006435;28;20455;-90
2024/03/03 03:58:32;;;;;;;7.43;5.30;;;;;;;;;;5005218;28;20481;-89
2024/03/03 04:01:03;;;;;;;7.93;5.33;;;;;;;;;;5009989;28;20987;-88
2024/03/03 04:03:33;;;;;;;7.07;5.73;;;;;;;;;;5006267;28;20487;-89
2024/03/03 04:06:00;;;;;;;7.20;6.33;;;;;;;;;;5002743;28;20443;-89
2024/03/03 04:08:30;;;;;;;6.80;4.63;;;;;;;;;;5004115;28;20537;-89
2024/03/03 04:11:00;;;;;;;8.30;5.83;;;;;;;;;;5016613;28;20480;-90
2024/03/03 04:13:33;;;;;;;8.00;6.00;;;;;;;;;;5005165;28;20540;-88
2024/03/03 04:16:06;;;;;;;5.57;5.07;;;;;;;;;;5012131;28;20540;-89
2024/03/03 04:18:34;;;;;;;6.70;5.27;;;;;;;;;;4999238;28;20452;-89
2024/03/03 04:21:01;;;;;;;8.73;4.87;;;;;;;;;;5010900;28;20471;-89
2024/03/03 04:23:31;;;;;;;8.80;5.23;;;;;;;;;;5015188;28;20481;-88
2024/03/03 04:26:01;;;;;;;8.90;6.30;;;;;;;;;;5010253;28;20486;-89
2024/03/03 04:28:41;;;;;;;8.53;5.97;;;;;;;;;;5003279;28;20483;-90
2024/03/03 04:31:15;;;;;;;7.70;5.70;;;;;;;;;;5009534;28;20436;-89
2024/03/03 04:33:42;;;;;;;7.80;5.70;;;;;;;;;;5008098;28;20467;-87
2024/03/03 04:36:23;;;;;;;8.70;5.47;;;;;;;;;;5008769;28;20961;-89
2024/03/03 04:38:51;;;;;;;8.23;5.50;;;;;;;;;;5006604;28;20443;-88
2024/03/03 04:41:19;;;;;;;8.90;6.20;;;;;;;;;;5005998;28;20468;-87
2024/03/03 04:43:47;;;;;;;9.63;5.90;;;;;;;;;;5007103;28;20531;-89
2024/03/03 04:46:19;;;;;;;7.87;6.00;;;;;;;;;;5010482;28;20467;-89
2024/03/03 04:52:28;;;;;;;6.73;5.83;;;;;;;;;;5005256;28;20426;-89
2024/03/03 04:55:18;;;;;;;;;;;;;;;;;;;;;
2024/03/03 04:57:54;;;;;;;8.47;6.30;;;;;;;;;;5004949;28;20482;-88
2024/03/03 05:00:27;;;;;;;11.03;6.00;;;;;;;;;;5009131;28;20490;-87
2024/03/03 05:02:57;;;;;;;9.43;6.17;;;;;;;;;;5008587;28;20535;-89
2024/03/03 05:05:25;;;;;;;7.97;5.80;;;;;;;;;;5008712;28;20475;-89
2024/03/03 05:07:53;;;;;;;7.50;6.40;;;;;;;;;;5000829;28;20578;-89
2024/03/03 05:10:25;;;;;;;8.60;6.37;;;;;;;;;;5023831;28;20455;-88
2024/03/03 05:12:53;;;;;;;10.60;7.37;;;;;;;;;;5009299;28;20451;-88
2024/03/03 05:15:27;;;;;;;8.97;6.40;;;;;;;;;;5004551;28;20524;-90
2024/03/03 05:18:02;;;;;;;8.00;6.10;;;;;;;;;;5018579;28;20494;-89
2024/03/03 05:20:35;;;;;;;10.40;6.80;;;;;;;;;;5001791;28;20439;-89
2024/03/03 05:23:04;;;;;;;7.97;6.23;;;;;;;;;;5008288;28;20658;-89
2024/03/03 05:25:35;;;;;;;9.53;6.10;;;;;;;;;;5005256;28;20507;-89
2024/03/03 05:28:12;;;;;;;11.40;6.10;;;;;;;;;;5013488;28;20474;-89
2024/03/03 05:30:42;;;;;;;8.63;5.40;;;;;;;;;;5008455;28;20469;-87
2024/03/03 05:33:12;;;;;;;8.23;6.13;;;;;;;;;;5004180;28;20462;-90
2024/03/03 05:35:41;;;;;;;8.93;6.00;;;;;;;;;;5017094;28;20511;-91
2024/03/03 05:38:19;;;;;;;8.23;7.10;;;;;;;;;;5005508;28;20446;-90
2024/03/03 05:40:47;;;;;;;9.87;6.83;;;;;;;;;;5010029;28;20451;-88
2024/03/03 05:43:31;;;;;;;;;;;;;;;;;;;;;
2024/03/03 05:46:03;;;;;;;9.50;7.17;;;;;;;;;;5003623;28;20435;-89
2024/03/03 05:48:37;;;;;;;9.93;6.73;;;;;;;;;;5006197;28;20487;-90
2024/03/03 05:51:05;;;;;;;7.37;6.57;;;;;;;;;;5012187;28;20527;-89
2024/03/03 05:53:40;;;;;;;11.73;7.60;;;;;;;;;;5000724;28;20474;-88
2024/03/03 05:56:14;;;;;;;10.93;7.27;;;;;;;;;;5012811;28;20475;-88
2024/03/03 05:58:47;;;;;;;9.10;6.50;;;;;;;;;;5008133;28;20454;-89
2024/03/03 06:01:19;;;;;;;9.90;6.77;;;;;;;;;;5001525;28;20461;-88
2024/03/03 06:03:50;;;;;;;8.73;6.73;;;;;;;;;;5003338;28;20538;-88
2024/03/03 06:06:22;;;;;;;11.17;6.60;;;;;;;;;;5002562;28;20527;-88
2024/03/03 06:08:51;;;;;;;11.30;7.17;;;;;;;;;;5010130;28;20531;-91
2024/03/03 06:11:21;;;;;;;11.13;7.83;;;;;;;;;;5005652;28;20542;-89
2024/03/03 06:13:51;;;;;;;8.77;6.70;;;;;;;;;;5001330;28;20489;-87
2024/03/03 06:16:21;;;;;;;12.90;7.63;;;;;;;;;;4995375;28;20478;-89
2024/03/03 06:18:48;;;;;;;8.67;7.40;;;;;;;;;;5007893;28;20509;-89
2024/03/03 06:21:16;;;;;;;10.30;7.53;;;;;;;;;;5005131;28;20467;-89
2024/03/03 06:24:01;;;;;;;7.90;6.77;;;;;;;;;;5010935;28;20522;-88
2024/03/03 06:26:35;;;;;;;10.20;7.37;;;;;;;;;;5009747;28;20469;-87
2024/03/03 06:29:14;;;;;;;9.67;7.60;;;;;;;;;;5012211;28;20474;-89
2024/03/03 06:31:47;;;;;;;8.37;7.17;;;;;;;;;;5000487;28;20487;-88
2024/03/03 06:34:15;;;;;;;10.13;6.73;;;;;;;;;;5004385;28;20451;-87
2024/03/03 06:36:45;;;;;;;9.97;7.40;;;;;;;;;;5012430;28;20435;-88
2024/03/03 06:39:20;;;;;;;8.90;6.70;;;;;;;;;;5017460;28;20490;-90
2024/03/03 06:41:48;;;;;;;10.20;7.60;;;;;;;;;;5010098;28;20444;-88
2024/03/03 06:44:17;;;;;;;11.17;7.30;;;;;;;;;;5004515;28;20482;-90
2024/03/03 06:46:51;;;;;;;10.70;7.90;;;;;;;;;;5009750;28;20448;-89
2024/03/03 06:56:03;;;;;;;9.83;7.10;;;;;;;;;;5015153;28;20771;-87
2024/03/03 06:58:44;;;;;;;9.43;7.83;;;;;;;;;;5005649;28;20517;-89
2024/03/03 07:01:23;;;;;;;10.20;7.57;;;;;;;;;;5022336;28;20478;-89
2024/03/03 07:06:57;;;;;;;11.20;7.40;;;;;;;;;;5017952;28;20459;-90
2024/03/03 07:09:33;;;;;;;11.47;7.97;;;;;;;;;;5009620;28;20486;-88
2024/03/03 07:12:04;;;;;;;10.17;7.50;;;;;;;;;;5014211;28;20490;-90
2024/03/03 07:14:32;;;;;;;10.00;7.20;;;;;;;;;;5002727;28;20472;-87
2024/03/03 07:17:13;;;;;;;11.30;8.37;;;;;;;;;;5009948;28;20444;-89
2024/03/03 07:19:42;;;;;;;16.80;7.87;;;;;;;;;;5008484;28;20460;-89
2024/03/03 07:22:12;;;;;;;10.07;7.83;;;;;;;;;;5004899;28;20440;-89
2024/03/03 07:24:42;;;;;;;10.13;7.13;;;;;;;;;;5011826;28;20451;-87
2024/03/03 07:27:16;;;;;;;11.30;7.63;;;;;;;;;;5011585;28;20498;-88
2024/03/03 07:29:53;;;;;;;11.27;7.93;;;;;;;;;;5009602;28;20444;-87
2024/03/03 07:32:29;;;;;;;9.43;7.67;;;;;;;;;;5013937;28;20440;-90
2024/03/03 07:35:02;;;;;;;14.23;8.30;;;;;;;;;;5170284;23;20496;-89
2024/03/03 07:37:51;;;;;;;9.00;8.07;;;;;;;;;;4991999;28;20450;-89
2024/03/03 07:40:26;;;;;;;9.87;7.67;;;;;;;;;;4998758;28;20447;-89
2024/03/03 07:43:10;;;;;;;8.43;7.10;;;;;;;;;;4999501;28;20476;-87
2024/03/03 07:46:29;;;;;;;11.67;8.10;;;;;;;;;;4972272;29;20452;-87
2024/03/03 07:49:15;;;;;;;10.40;7.77;;;;;;;;;;4974155;28;20485;-86
2024/03/03 07:52:00;;;;;;;9.93;8.03;;;;;;;;;;4963227;28;20470;-87
2024/03/03 07:54:47;;;;;;;9.23;7.03;;;;;;;;;;4968428;28;20464;-90
2024/03/03 07:57:28;;;;;;;12.40;8.47;;;;;;;;;;4970779;29;20486;-88
2024/03/03 08:00:06;;;;;;;11.47;7.77;;;;;;;;;;4971346;29;20433;-88
2024/03/03 08:02:51;;;;;;;10.83;8.33;;;;;;;;;;4973410;28;20449;-89
2024/03/03 08:05:28;;;;;;;16.93;9.10;;;;;;;;;;4968335;28;20536;-89
2024/03/03 08:08:05;;;;;;;10.60;8.03;;;;;;;;;;4968546;28;20473;-89
2024/03/03 08:10:45;;;;;;;12.73;8.57;;;;;;;;;;4969708;28;20461;-88
2024/03/03 08:13:19;;;;;;;9.63;7.60;;;;;;;;;;4971173;28;20491;-90
2024/03/03 08:15:49;;;;;;;13.27;7.97;;;;;;;;;;4971403;28;20456;-90
2024/03/03 08:18:39;;;;;;;10.00;7.57;;;;;;;;;;4969761;28;20464;-89
2024/03/03 08:21:15;;;;;;;9.07;7.47;;;;;;;;;;4968741;28;20512;-87
2024/03/03 08:23:46;;;;;;;11.97;7.70;;;;;;;;;;4970125;28;20512;-88
2024/03/03 08:26:19;;;;;;;10.23;7.37;;;;;;;;;;4974630;28;20554;-88
2024/03/03 08:28:52;;;;;;;12.37;8.57;;;;;;;;;;4978423;28;20535;-87
2024/03/03 08:31:27;;;;;;;13.83;7.90;;;;;;;;;;4978673;28;20436;-91
2024/03/03 08:34:10;;;;;;;10.20;8.00;;;;;;;;;;4971464;28;20558;-88
2024/03/03 08:36:41;;;;;;;14.60;8.10;;;;;;;;;;4967583;28;20458;-88
2024/03/03 08:39:16;;;;;;;13.10;7.97;;;;;;;;;;4974533;28;20470;-89
2024/03/03 08:41:49;;;;;;;9.10;7.90;;;;;;;;;;4969288;28;20461;-89
2024/03/03 08:44:34;;;;;;;11.67;8.50;;;;;;;;;;4970227;28;20484;-87
2024/03/03 08:47:05;;;;;;;10.77;8.43;;;;;;;;;;4960530;28;20458;-88
2024/03/03 08:49:48;;;;;;;10.50;7.93;;;;;;;;;;4970208;28;20570;-89
2024/03/03 08:52:26;;;;;;;13.30;8.23;;;;;;;;;;4978216;28;20436;-88
2024/03/03 08:55:13;;;;;;;9.63;7.37;;;;;;;;;;4983928;28;20503;-87
2024/03/03 08:57:48;;;;;;;11.40;8.07;;;;;;;;;;4987303;28;20480;-89
2024/03/03 09:00:21;;;;;;;10.83;8.20;;;;;;;;;;4965750;28;20480;-87
2024/03/03 09:02:59;;;;;;;13.00;8.33;;;;;;;;;;4968576;28;20564;-86
2024/03/03 09:05:33;;;;;;;9.70;7.70;;;;;;;;;;4966838;28;20482;-88
2024/03/03 09:08:14;;;;;;;11.10;7.27;;;;;;;;;;4963507;28;20474;-88
2024/03/03 09:10:48;;;;;;;11.57;8.77;;;;;;;;;;4965884;29;21214;-87
2024/03/03 09:13:19;;;;;;;13.10;8.33;;;;;;;;;;4965562;28;20999;-86
2024/03/03 09:16:02;;;;;;;11.50;8.30;;;;;;;;;;4965663;29;20503;-87
2024/03/03 09:18:33;;;;;;;9.27;7.60;;;;;;;;;;4964852;28;20496;-88
2024/03/03 09:21:15;;;;;;;12.40;8.10;;;;;;;;;;4973428;28;20527;-89
2024/03/03 09:24:00;;;;;;;11.70;9.23;;;;;;;;;;4977614;28;20481;-89
2024/03/03 09:26:39;;;;;;;10.80;8.00;;;;;;;;;;4972705;28;20480;-91
2024/03/03 09:29:20;;;;;;;9.77;7.70;;;;;;;;;;4971225;28;20480;-89
2024/03/03 09:32:02;;;;;;;11.30;8.53;;;;;;;;;;4975833;28;20464;-91
2024/03/03 09:34:44;;;;;;;11.53;8.53;;;;;;;;;;4970536;28;20504;-90
2024/03/03 09:37:25;;;;;;;8.73;7.67;;;;;;;;;;4976697;28;20471;-88
2024/03/03 09:40:16;;;;;;;9.60;8.17;;;;;;;;;;4966282;29;21045;-87
2024/03/03 09:43:19;;;;;;;11.73;8.40;;;;;;;;;;4953070;28;20459;-88
2024/03/03 09:46:03;;;;;;;10.50;7.90;;;;;;;;;;4965323;28;20535;-90
2024/03/03 09:48:46;;;;;;;10.50;8.90;;;;;;;;;;4968095;29;20472;-87
2024/03/03 09:51:19;;;;;;;9.30;7.83;;;;;;;;;;4968020;28;20515;-89
2024/03/03 09:54:10;;;;;;;10.50;9.00;;;;;;;;;;4963214;28;20453;-89
2024/03/03 09:56:53;;;;;;;14.67;9.50;;;;;;;;;;4962288;29;20480;-89
2024/03/03 09:59:22;;;;;;;11.47;8.60;;;;;;;;;;4980948;28;20484;-91
2024/03/03 10:02:14;;;;;;;11.70;8.77;;;;;;;;;;4970903;29;20446;-87
2024/03/03 10:05:01;;;;;;;10.10;8.43;;;;;;;;;;4972776;28;20528;-87
2024/03/03 10:07:55;;;;;;;10.80;8.50;;;;;;;;;;4952200;29;20452;-86
2024/03/03 10:10:56;;;;;;;9.07;7.63;;;;;;;;;;4986521;28;21122;-87
2024/03/03 10:13:44;;;;;;;10.10;7.90;;;;;;;;;;4976771;28;20480;-88
2024/03/03 10:16:34;;;;;;;9.83;7.70;;;;;;;;;;4963697;28;20456;-87
2024/03/03 10:19:29;;;;;;;10.50;8.10;;;;;;;;;;4968700;29;20449;-87
2024/03/03 10:22:18;;;;;;;10.70;9.00;;;;;;;;;;4965697;29;20438;-88
2024/03/03 10:25:15;;;;;;;9.43;8.20;;;;;;;;;;4971148;28;20480;-87
2024/03/03 10:28:18;;;;;;;13.73;8.97;;;;;;;;;;5081743;23;20503;-88
2024/03/03 10:31:20;;;;;;;9.67;7.90;;;;;;;;;;5014207;28;20430;-91
2024/03/03 10:34:16;;;;;;;9.83;8.70;;;;;;;;;;5009270;28;20460;-86
2024/03/03 10:37:09;;;;;;;11.87;9.13;;;;;;;;;;4995054;28;20448;-88
2024/03/03 10:40:21;;;;;;;9.77;8.33;;;;;;;;;;4981999;28;20504;-87
2024/03/03 10:43:04;;;;;;;11.17;9.43;;;;;;;;;;4988709;28;20462;-89
2024/03/03 10:45:52;;;;;;;10.20;7.90;;;;;;;;;;5000493;28;20469;-88
2024/03/03 10:48:37;;;;;;;;;;;;;;;;;;;;;
2024/03/03 10:51:44;;;;;;;9.80;8.70;;;;;;;;;;4990926;28;20504;-87
2024/03/03 10:54:50;;;;;;;10.37;8.23;;;;;;;;;;4987209;28;20461;-87
2024/03/03 10:57:25;;;;;;;10.77;8.33;;;;;;;;;;4983756;28;20448;-89
2024/03/03 11:00:11;;;;;;;10.10;9.10;;;;;;;;;;4978671;28;20457;-88
2024/03/03 11:02:58;;;;;;;13.80;9.23;;;;;;;;;;4973142;28;20464;-88
2024/03/03 11:05:50;;;;;;;10.37;8.30;;;;;;;;;;4987982;28;20476;-88
2024/03/03 11:08:29;;;;;;;10.07;7.80;;;;;;;;;;4983756;28;20573;-88
2024/03/03 11:11:07;;;;;;;11.70;8.90;;;;;;;;;;4984256;28;20467;-87
2024/03/03 11:14:12;;;;;;;10.77;8.90;;;;;;;;;;4982654;28;20541;-88
2024/03/03 11:17:16;;;;;;;10.07;8.20;;;;;;;;;;4980260;28;20474;-89
2024/03/03 11:20:07;;;;;;;;;;;;;;;;;;;;;
2024/03/03 11:23:00;;;;;;;10.27;8.97;;;;;;;;;;4980148;28;20456;-88
2024/03/03 11:25:59;;;;;;;9.90;7.73;;;;;;;;;;4988191;28;20448;-91
2024/03/03 11:28:47;;;;;;;11.20;9.20;;;;;;;;;;4992564;28;20488;-89
2024/03/03 11:31:23;;;;;;;10.23;8.00;;;;;;;;;;4980769;28;20476;-88
2024/03/03 11:34:03;;;;;;;9.40;8.10;;;;;;;;;;4985481;28;20478;-88
2024/03/03 11:36:39;;;;;;;8.63;7.60;;;;;;;;;;4986864;28;20562;-87
2024/03/03 11:39:16;;;;;;;8.50;7.60;;;;;;;;;;4979029;28;20506;-89
2024/03/03 11:41:50;;;;;;;11.07;8.43;;;;;;;;;;4989270;28;20462;-88
2024/03/03 11:44:38;;;;;;;10.87;8.17;;;;;;;;;;4988207;28;20472;-87
2024/03/03 11:47:20;;;;;;;11.77;9.00;;;;;;;;;;4988270;28;20494;-90
2024/03/03 11:50:19;;;;;;;11.80;8.20;;;;;;;;;;4989089;28;20483;-89
2024/03/03 11:53:04;;;;;;;12.03;8.93;;;;;;;;;;4976061;28;20507;-88
2024/03/03 11:55:51;;;;;;;10.20;8.67;;;;;;;;;;5008975;23;20486;-88
2024/03/03 11:58:24;;;;;;;10.90;8.60;;;;;;;;;;5008635;28;20455;-91
2024/03/03 12:01:36;;;;;;;10.10;8.20;;;;;;;;;;5015685;28;20459;-88
2024/03/03 12:04:20;;;;;;;10.77;8.00;;;;;;;;;;4998985;28;20506;-88
2024/03/03 12:07:06;;;;;;;8.77;7.87;;;;;;;;;;4992308;28;20539;-87
2024/03/03 12:10:07;;;;;;;10.20;8.73;;;;;;;;;;4992944;28;21586;-87
2024/03/03 12:12:46;;;;;;;9.13;8.17;;;;;;;;;;4992764;28;20551;-88
2024/03/03 12:15:24;;;;;;;10.40;8.03;;;;;;;;;;5003031;28;20467;-88
2024/03/03 12:18:11;;;;;;;10.03;7.73;;;;;;;;;;4993026;28;20462;-87
2024/03/03 12:21:06;;;;;;;9.20;7.37;;;;;;;;;;4998668;28;20459;-87
2024/03/03 12:23:51;;;;;;;;;;;;;;;;;;;;;
2024/03/03 12:26:40;;;;;;;10.03;7.77;;;;;;;;;;4998822;28;21022;-88
2024/03/03 12:29:08;;;;;;;8.67;7.73;;;;;;;;;;4999843;28;20498;-88
2024/03/03 12:32:24;;;;;;;10.60;7.43;;;;;;;;;;5010672;28;20495;-89
2024/03/03 12:35:02;;;;;;;9.33;8.13;;;;;;;;;;4995036;28;20470;-88
2024/03/03 12:37:59;;;;;;;9.63;8.63;;;;;;;;;;4992557;28;20470;-87
2024/03/03 12:45:04;;;;;;;;;;;;;;;;;;;;;
2024/03/03 12:48:02;;;;;;;9.20;7.47;;;;;;;;;;4958804;28;20567;-87
2024/03/03 12:50:56;;;;;;;11.63;9.00;;;;;;;;;;4995759;28;20507;-89
2024/03/03 12:54:00;;;;;;;7.23;6.10;;;;;;;;;;5005342;28;20471;-88
2024/03/03 13:03:36;;;;;;;9.20;7.00;;;;;;;;;;5000640;28;20448;-88
2024/03/03 13:07:00;;;;;;;7.20;6.50;;;;;;;;;;4996820;28;20458;-91
2024/03/03 13:10:02;;;;;;;6.27;5.63;;;;;;;;;;5014335;28;20549;-88
2024/03/03 13:12:52;;;;;;;7.23;6.53;;;;;;;;;;4980383;28;20456;-87
2024/03/03 13:23:44;;;;;;;5.80;5.23;;;;;;;;;;4992107;28;20479;-87
2024/03/03 13:26:17;;;;;;;5.30;4.80;;;;;;;;;;4978922;28;20476;-87
2024/03/03 13:29:04;;;;;;;5.03;4.40;;;;;;;;;;4971389;28;20475;-88
2024/03/03 13:31:45;;;;;;;5.17;4.67;;;;;;;;;;4985687;28;20427;-87
2024/03/03 13:37:30;;;;;;;5.50;4.80;;;;;;;;;;5001927;28;20489;-89
2024/03/03 13:40:40;;;;;;;4.80;4.07;;;;;;;;;;5004933;28;20439;-88
2024/03/03 14:02:40;;;;;;;5.40;4.40;;;;;;;;;;5020593;28;20455;-87
2024/03/03 14:05:18;;;;;;;5.33;4.57;;;;;;;;;;5007642;28;20477;-87
2024/03/03 14:08:03;;;;;;;4.70;4.30;;;;;;;;;;5007696;28;20481;-89
2024/03/03 14:10:46;;;;;;;5.63;4.43;;;;;;;;;;5016534;28;20581;-88
2024/03/03 14:13:30;;;;;;;4.50;4.10;;;;;;;;;;5023335;28;20434;-88
2024/03/03 14:16:19;;;;;;;5.33;4.83;;;;;;;;;;5035680;28;20453;-87
2024/03/03 14:19:10;;;;;;;4.33;3.90;;;;;;;;;;5028965;28;20457;-91
2024/03/03 14:21:57;;;;;;;4.73;4.03;;;;;;;;;;5025029;28;20482;-90
2024/03/03 14:24:56;;;;;;;4.30;3.93;;;;;;;;;;5024239;28;20458;-88
2024/03/03 14:27:32;;;;;;;4.27;3.87;;;;;;;;;;5028350;28;20485;-88
2024/03/03 14:30:14;;;;;;;4.70;3.83;;;;;;;;;;5025767;28;20470;-89
2024/03/03 14:33:07;;;;;;;4.57;3.80;;;;;;;;;;5029836;28;20442;-88
2024/03/03 14:35:42;;;;;;;5.10;4.57;;;;;;;;;;5018000;28;21199;-88
2024/03/03 14:38:21;;;;;;;4.40;4.00;;;;;;;;;;5027645;28;20456;-87
2024/03/03 14:41:16;;;;;;;5.20;4.30;;;;;;;;;;5022706;28;20440;-88
2024/03/03 14:44:13;;;;;;;6.43;3.67;;;;;;;;;;5012994;28;20477;-89
2024/03/03 14:46:45;;;;;;;4.27;3.87;;;;;;;;;;5028902;28;20455;-87
2024/03/03 14:49:34;;;;;;;6.67;5.60;;;;;;;;;;5019125;28;20470;-86
2024/03/03 14:52:18;;;;;;;8.53;6.90;;;;;;;;;;5020773;28;20438;-90
2024/03/03 14:55:08;;;;;;;9.50;8.03;;;;;;;;;;5030483;28;20537;-88
2024/03/03 14:58:11;;;;;;;8.47;7.50;;;;;;;;;;5027785;28;20450;-87
2024/03/03 15:01:00;;;;;;;10.77;9.23;;;;;;;;;;5018855;28;20471;-87
2024/03/03 15:06:18;;;;;;;9.93;8.73;;;;;;;;;;4990573;28;20470;-88
2024/03/03 15:08:55;;;;;;;9.37;7.40;;;;;;;;;;4990126;28;20500;-89
2024/03/03 15:11:38;;;;;;;10.43;9.00;;;;;;;;;;4990605;28;20428;-89
2024/03/03 15:14:20;;;;;;;12.83;7.70;;;;;;;;;;4989622;28;20502;-87
2024/03/03 15:17:15;;;;;;;8.97;6.83;;;;;;;;;;5002101;28;20455;-87
2024/03/03 15:19:56;;;;;;;7.93;7.13;;;;;;;;;;4978096;28;20795;-88
2024/03/03 15:22:30;;;;;;;8.27;7.10;;;;;;;;;;4989898;28;20452;-88
2024/03/03 15:25:11;;;;;;;9.77;7.77;;;;;;;;;;4997984;28;20512;-91
2024/03/03 15:28:06;;;;;;;8.40;6.90;;;;;;;;;;4997294;28;20454;-91
2024/03/03 15:30:42;;;;;;;8.23;7.27;;;;;;;;;;4997860;28;20535;-90
2024/03/03 15:33:36;;;;;;;11.47;8.07;;;;;;;;;;4997307;28;20460;-90
2024/03/03 15:36:33;;;;;;;7.53;6.80;;;;;;;;;;4994241;28;20520;-91
2024/03/03 15:45:20;;;;;;;7.97;6.80;;;;;;;;;;5282186;23;20514;-88
2024/03/03 15:51:17;;;;;;;9.20;6.87;;;;;;;;;;5005921;28;20461;-88
2024/03/03 15:54:09;;;;;;;12.13;6.67;;;;;;;;;;4996423;28;20469;-89
2024/03/03 15:56:55;;;;;;;6.87;6.17;;;;;;;;;;4961184;28;20552;-87
2024/03/03 15:59:57;;;;;;;9.20;7.10;;;;;;;;;;4981632;28;20459;-87
2024/03/03 16:02:36;;;;;;;7.83;6.73;;;;;;;;;;4973290;28;20465;-88
2024/03/03 16:05:19;;;;;;;8.13;7.27;;;;;;;;;;4986005;28;20503;-87
2024/03/03 16:11:11;;;;;;;8.37;6.17;;;;;;;;;;4976043;28;20520;-87
2024/03/03 16:17:48;;;;;;;10.20;6.13;;;;;;;;;;4963354;28;20452;-88
2024/03/03 16:20:38;;;;;;;8.80;7.07;;;;;;;;;;4989780;28;20494;-89
2024/03/03 16:23:29;;;;;;;7.20;6.30;;;;;;;;;;4945531;28;20508;-89
2024/03/03 16:26:06;;;;;;;8.10;6.07;;;;;;;;;;4979396;28;20453;-88
2024/03/03 16:28:51;;;;;;;9.37;6.90;;;;;;;;;;4985449;28;20475;-88
2024/03/03 16:31:39;;;;;;;8.77;7.50;;;;;;;;;;4980078;28;20447;-88
2024/03/03 16:34:26;;;;;;;7.30;6.07;;;;;;;;;;4981601;28;20520;-87
2024/03/03 16:37:09;;;;;;;;;;;;;;;;;;;;;
2024/03/03 16:39:44;;;;;;;6.87;5.13;;;;;;;;;;4983412;28;20526;-87
2024/03/03 16:42:40;;;;;;;5.70;4.50;;;;;;;;;;4986270;28;20603;-88
2024/03/03 16:45:35;;;;;;;7.43;5.00;;;;;;;;;;4959735;28;20856;-86
2024/03/03 16:48:23;;;;;;;7.37;5.00;;;;;;;;;;4985128;28;20471;-89
2024/03/03 16:51:01;;;;;;;5.83;4.40;;;;;;;;;;4990197;28;20504;-88
2024/03/03 16:53:48;;;;;;;7.03;4.63;;;;;;;;;;4977143;28;20480;-88
2024/03/03 16:56:36;;;;;;;8.03;6.17;;;;;;;;;;4989181;28;20459;-86
2024/03/03 16:59:11;;;;;;;8.47;4.73;;;;;;;;;;4982609;28;20455;-89
2024/03/03 17:01:43;;;;;;;7.50;4.97;;;;;;;;;;4982478;28;20459;-86
2024/03/03 17:04:18;;;;;;;6.77;4.83;;;;;;;;;;4982206;28;20487;-88
2024/03/03 17:06:52;;;;;;;6.07;4.53;;;;;;;;;;4984904;28;20539;-88
2024/03/03 17:09:27;;;;;;;6.70;5.87;;;;;;;;;;4973238;28;20460;-88
2024/03/03 17:12:08;;;;;;;7.07;5.43;;;;;;;;;;4982656;28;20439;-89
2024/03/03 17:14:36;;;;;;;8.33;6.57;;;;;;;;;;5075012;23;20483;-89
2024/03/03 17:20:30;;;;;;;8.10;5.53;;;;;;;;;;5010180;28;20447;-87
2024/03/03 17:23:27;;;;;;;9.00;6.10;;;;;;;;;;5006627;28;20558;-87
2024/03/03 17:26:46;;;;;;;;;;;;;;;;;;;;;
2024/03/03 17:29:48;;;;;;;7.60;6.80;;;;;;;;;;4984231;28;20455;-90
2024/03/03 17:32:32;;;;;;;7.40;6.63;;;;;;;;;;4982002;28;20484;-88
2024/03/03 17:35:21;;;;;;;6.87;5.90;;;;;;;;;;4983556;28;20452;-87
2024/03/03 17:38:10;;;;;;;8.30;5.97;;;;;;;;;;4986195;28;20481;-87
2024/03/03 17:40:54;;;;;;;6.40;5.77;;;;;;;;;;5003386;28;20470;-88
2024/03/03 17:43:44;;;;;;;10.97;7.70;;;;;;;;;;4985626;28;20444;-88